Time;durP1;ratioP1;P1;durP2;ratioP2;P2;SDS_P1;SDS_P2;PMS_P1;PMS_P2;Temp;Humidity;BMP_temperature;BMP_pressure;BME280_temperature;BME280_humidity;BME280_pressure;Samples;Min_cycle;Max_cycle;Signal;HPM_P1;HPM_P2
2024/03/23 00:00:31;;;;;;;37.65;30.88;;;;;;;;;;5065793;28;20312;-49
2024/03/23 00:02:58;;;;;;;54.00;32.22;;;;;;;;;;5066286;28;20029;-49
2024/03/23 00:05:25;;;;;;;41.97;31.10;;;;;;;;;;5065875;28;20021;-49
2024/03/23 00:07:53;;;;;;;43.85;30.45;;;;;;;;;;5065833;28;20059;-49
2024/03/23 00:10:22;;;;;;;45.35;29.27;;;;;;;;;;5065729;28;20328;-42
2024/03/23 00:12:49;;;;;;;42.97;29.90;;;;;;;;;;5065717;28;20029;-42
2024/03/23 00:15:16;;;;;;;49.47;30.63;;;;;;;;;;5065883;28;20043;-43
2024/03/23 00:17:43;;;;;;;48.45;29.98;;;;;;;;;;5065939;28;20351;-43
2024/03/23 00:20:10;;;;;;;57.95;29.35;;;;;;;;;;5065631;28;20033;-44
2024/03/23 00:22:37;;;;;;;50.85;29.48;;;;;;;;;;5065713;28;20182;-41
2024/03/23 00:25:04;;;;;;;41.50;28.38;;;;;;;;;;5065544;28;20024;-40
2024/03/23 00:27:32;;;;;;;51.00;29.27;;;;;;;;;;5065276;28;20036;-50
2024/03/23 00:29:59;;;;;;;44.92;28.23;;;;;;;;;;5065599;28;20028;-42
2024/03/23 00:32:26;;;;;;;47.33;29.30;;;;;;;;;;5065751;28;20351;-42
2024/03/23 00:34:53;;;;;;;34.40;28.05;;;;;;;;;;5065472;28;20040;-38
2024/03/23 00:37:20;;;;;;;43.28;28.05;;;;;;;;;;5065660;28;20023;-45
2024/03/23 00:39:47;;;;;;;43.03;27.95;;;;;;;;;;5065413;28;20012;-40
2024/03/23 00:42:14;;;;;;;37.65;26.95;;;;;;;;;;5063750;28;20348;-40
2024/03/23 00:44:41;;;;;;;38.63;26.98;;;;;;;;;;5065471;28;20032;-39
2024/03/23 00:47:08;;;;;;;34.20;27.45;;;;;;;;;;5065437;28;20037;-46
2024/03/23 00:49:35;;;;;;;37.95;26.02;;;;;;;;;;5065594;28;20071;-41
2024/03/23 00:52:02;;;;;;;36.28;26.45;;;;;;;;;;5065247;28;20024;-46
2024/03/23 00:54:29;;;;;;;44.25;26.83;;;;;;;;;;5065425;28;20029;-47
2024/03/23 00:56:56;;;;;;;43.08;26.83;;;;;;;;;;5064764;28;20080;-52
2024/03/23 00:59:27;;;;;;;44.72;27.30;;;;;;;;;;5065127;28;20029;-42
2024/03/23 01:01:53;;;;;;;41.08;26.67;;;;;;;;;;5064860;28;20025;-44
2024/03/23 01:04:20;;;;;;;45.10;27.58;;;;;;;;;;5065063;28;20025;-47
2024/03/23 01:06:47;;;;;;;36.55;26.27;;;;;;;;;;5063449;28;20021;-57
2024/03/23 01:09:13;;;;;;;40.63;25.70;;;;;;;;;;5065182;28;20021;-56
2024/03/23 01:11:40;;;;;;;35.88;26.25;;;;;;;;;;5063945;28;20028;-49
2024/03/23 01:14:07;;;;;;;41.15;25.42;;;;;;;;;;5064990;28;20091;-49
2024/03/23 01:16:33;;;;;;;43.00;26.08;;;;;;;;;;5064719;28;20017;-43
2024/03/23 01:19:00;;;;;;;39.55;26.25;;;;;;;;;;5064454;28;20036;-44
2024/03/23 01:21:27;;;;;;;40.33;26.40;;;;;;;;;;5064729;28;20044;-50
2024/03/23 01:23:53;;;;;;;39.35;25.58;;;;;;;;;;5063918;28;20299;-42
2024/03/23 01:26:20;;;;;;;33.97;25.95;;;;;;;;;;5064573;28;20021;-41
2024/03/23 01:28:46;;;;;;;35.83;25.17;;;;;;;;;;5064498;28;20025;-43
2024/03/23 01:31:13;;;;;;;33.25;25.08;;;;;;;;;;5064511;28;20074;-49
2024/03/23 01:33:40;;;;;;;35.42;25.15;;;;;;;;;;5064373;28;20051;-44
2024/03/23 01:36:06;;;;;;;35.17;24.60;;;;;;;;;;5064422;28;20025;-45
2024/03/23 01:38:33;;;;;;;43.72;25.83;;;;;;;;;;5064744;28;20032;-48
2024/03/23 01:40:59;;;;;;;58.90;26.23;;;;;;;;;;5057853;28;20085;-44
2024/03/23 01:43:26;;;;;;;39.13;25.67;;;;;;;;;;5067482;28;20029;-45
2024/03/23 01:45:53;;;;;;;39.72;25.88;;;;;;;;;;5064602;28;20040;-42
2024/03/23 01:48:23;;;;;;;37.30;25.80;;;;;;;;;;5064336;28;20029;-42
2024/03/23 01:50:49;;;;;;;36.65;25.70;;;;;;;;;;5065358;28;20033;-43
2024/03/23 01:53:21;;;;;;;38.20;26.55;;;;;;;;;;5055845;28;20028;-44
2024/03/23 01:55:48;;;;;;;32.38;25.70;;;;;;;;;;5055305;28;20056;-42
2024/03/23 01:58:15;;;;;;;40.00;26.60;;;;;;;;;;5044251;28;20341;-47
2024/03/23 02:00:41;;;;;;;38.22;27.25;;;;;;;;;;5043404;28;20332;-51
2024/03/23 02:03:24;;;;;;;39.15;28.17;;;;;;;;;;5051831;28;20032;-47
2024/03/23 02:05:51;;;;;;;46.40;29.27;;;;;;;;;;5055670;28;20085;-47
2024/03/23 02:08:19;;;;;;;46.55;28.05;;;;;;;;;;5052542;28;20033;-41
2024/03/23 02:10:45;;;;;;;40.13;27.38;;;;;;;;;;5063938;28;20191;-45
2024/03/23 02:13:12;;;;;;;40.78;27.70;;;;;;;;;;5063939;28;20024;-47
2024/03/23 02:15:40;;;;;;;34.72;26.75;;;;;;;;;;5063928;28;20040;-40
2024/03/23 02:18:08;;;;;;;37.45;26.30;;;;;;;;;;5054252;28;20053;-47
2024/03/23 02:20:35;;;;;;;37.88;26.10;;;;;;;;;;5043913;28;20026;-43
2024/03/23 02:23:02;;;;;;;44.47;26.55;;;;;;;;;;5045518;28;20085;-42
2024/03/23 02:25:29;;;;;;;39.58;28.08;;;;;;;;;;5047813;28;20086;-43
2024/03/23 02:27:56;;;;;;;35.58;26.33;;;;;;;;;;5062535;28;20212;-38
2024/03/23 02:30:22;;;;;;;39.80;27.08;;;;;;;;;;5056778;28;20021;-41
2024/03/23 02:32:49;;;;;;;41.33;27.52;;;;;;;;;;5047859;28;20021;-42
2024/03/23 02:35:15;;;;;;;38.55;27.55;;;;;;;;;;5048069;28;20033;-40
2024/03/23 02:37:42;;;;;;;43.92;32.58;;;;;;;;;;5054021;28;20037;-45
2024/03/23 02:40:09;;;;;;;49.60;28.13;;;;;;;;;;5051741;28;20026;-38
2024/03/23 02:42:36;;;;;;;49.20;28.73;;;;;;;;;;5029972;28;20052;-47
2024/03/23 02:45:04;;;;;;;40.10;28.23;;;;;;;;;;5047686;28;20052;-36
2024/03/23 02:47:31;;;;;;;37.17;27.90;;;;;;;;;;5065920;28;20025;-43
2024/03/23 02:49:58;;;;;;;39.60;28.63;;;;;;;;;;5067291;28;20027;-41
2024/03/23 02:52:24;;;;;;;40.00;27.80;;;;;;;;;;5067452;28;20021;-39
2024/03/23 02:54:51;;;;;;;37.67;27.42;;;;;;;;;;5067161;28;20020;-46
2024/03/23 02:57:17;;;;;;;33.03;27.10;;;;;;;;;;5061924;28;20085;-46
2024/03/23 02:59:44;;;;;;;35.95;26.75;;;;;;;;;;5059933;28;20063;-52
2024/03/23 03:02:12;;;;;;;36.83;27.92;;;;;;;;;;5047157;28;20321;-40
2024/03/23 03:04:38;;;;;;;40.40;28.48;;;;;;;;;;5046987;28;20049;-39
2024/03/23 03:07:05;;;;;;;37.22;28.90;;;;;;;;;;5047410;28;20024;-35
2024/03/23 03:09:32;;;;;;;37.30;27.60;;;;;;;;;;5047556;28;20029;-38
2024/03/23 03:11:59;;;;;;;38.90;27.50;;;;;;;;;;5058696;28;20054;-42
2024/03/23 03:14:26;;;;;;;36.60;28.35;;;;;;;;;;5067652;28;20025;-42
2024/03/23 03:16:52;;;;;;;42.13;28.25;;;;;;;;;;5066954;28;20013;-54
2024/03/23 03:19:19;;;;;;;42.30;29.42;;;;;;;;;;5060921;28;20056;-42
2024/03/23 03:21:47;;;;;;;32.38;27.90;;;;;;;;;;5048895;28;20021;-36
2024/03/23 03:24:14;;;;;;;35.78;27.33;;;;;;;;;;5047044;28;20025;-39
2024/03/23 03:26:40;;;;;;;38.22;27.50;;;;;;;;;;5050985;28;20048;-40
2024/03/23 03:29:07;;;;;;;35.95;27.13;;;;;;;;;;5058229;28;20035;-40
2024/03/23 03:31:34;;;;;;;35.10;27.35;;;;;;;;;;5066622;28;20112;-42
2024/03/23 03:34:00;;;;;;;31.80;26.73;;;;;;;;;;5060504;28;20332;-36
2024/03/23 03:36:27;;;;;;;34.88;26.73;;;;;;;;;;5055297;28;20021;-44
2024/03/23 03:38:53;;;;;;;32.85;27.77;;;;;;;;;;5055408;28;20029;-43
2024/03/23 03:41:20;;;;;;;33.92;26.77;;;;;;;;;;5046576;28;20029;-40
2024/03/23 03:43:47;;;;;;;34.45;26.38;;;;;;;;;;5056126;28;20236;-47
2024/03/23 03:46:13;;;;;;;31.60;27.70;;;;;;;;;;5047272;28;20025;-38
2024/03/23 03:48:40;;;;;;;32.67;26.63;;;;;;;;;;5063119;28;20025;-41
2024/03/23 03:51:06;;;;;;;34.10;27.33;;;;;;;;;;5064534;28;20305;-41
2024/03/23 03:53:33;;;;;;;32.17;26.75;;;;;;;;;;5066348;28;20024;-39
2024/03/23 03:56:03;;;;;;;36.97;27.02;;;;;;;;;;5065837;28;20115;-43
2024/03/23 03:58:29;;;;;;;33.88;27.58;;;;;;;;;;5065977;28;20059;-40
2024/03/23 04:00:56;;;;;;;36.20;27.05;;;;;;;;;;5059793;28;20056;-42
2024/03/23 04:03:23;;;;;;;41.83;26.48;;;;;;;;;;5053082;28;20075;-40
2024/03/23 04:05:55;;;;;;;31.80;26.45;;;;;;;;;;5046110;28;20032;-49
2024/03/23 04:08:22;;;;;;;32.78;27.15;;;;;;;;;;5046892;28;20063;-40
2024/03/23 04:10:49;;;;;;;33.88;27.50;;;;;;;;;;5053811;28;20014;-49
2024/03/23 04:13:16;;;;;;;35.72;27.10;;;;;;;;;;5043882;28;20092;-44
2024/03/23 04:15:43;;;;;;;33.00;28.42;;;;;;;;;;5043880;28;20017;-43
2024/03/23 04:18:09;;;;;;;38.17;26.30;;;;;;;;;;5043674;28;20108;-40
2024/03/23 04:20:36;;;;;;;32.58;27.48;;;;;;;;;;5044147;28;20031;-43
2024/03/23 04:23:03;;;;;;;30.70;26.85;;;;;;;;;;5043806;28;20297;-39
2024/03/23 04:25:29;;;;;;;35.67;27.23;;;;;;;;;;5043701;28;20095;-39
2024/03/23 04:27:56;;;;;;;32.25;27.33;;;;;;;;;;5043655;28;20033;-47
2024/03/23 04:30:25;;;;;;;36.72;27.67;;;;;;;;;;5043738;28;20266;-46
2024/03/23 04:32:51;;;;;;;33.95;27.35;;;;;;;;;;5043640;28;20025;-47
2024/03/23 04:35:19;;;;;;;34.55;28.33;;;;;;;;;;5043626;28;20025;-44
2024/03/23 04:37:46;;;;;;;32.28;27.40;;;;;;;;;;5044447;28;20025;-37
2024/03/23 04:40:13;;;;;;;36.22;27.67;;;;;;;;;;5045100;28;20025;-39
2024/03/23 04:42:40;;;;;;;32.85;27.35;;;;;;;;;;5045059;28;20037;-39
2024/03/23 04:45:06;;;;;;;30.65;27.35;;;;;;;;;;5049783;28;20087;-54
2024/03/23 04:47:35;;;;;;;30.33;27.20;;;;;;;;;;5057377;28;20029;-47
2024/03/23 04:50:02;;;;;;;37.83;28.10;;;;;;;;;;5064970;28;20324;-54
2024/03/23 04:52:29;;;;;;;33.85;27.52;;;;;;;;;;5064935;28;20031;-48
2024/03/23 04:54:56;;;;;;;31.85;28.33;;;;;;;;;;5064784;28;20020;-48
2024/03/23 04:57:22;;;;;;;34.45;28.02;;;;;;;;;;5060628;28;20127;-44
2024/03/23 04:59:49;;;;;;;35.72;27.98;;;;;;;;;;5056308;28;20084;-42
2024/03/23 05:02:16;;;;;;;33.75;27.88;;;;;;;;;;5064567;28;20027;-41
2024/03/23 05:04:42;;;;;;;32.78;28.15;;;;;;;;;;5064857;28;20265;-54
2024/03/23 05:07:09;;;;;;;32.50;28.65;;;;;;;;;;5064628;28;20021;-53
2024/03/23 05:09:35;;;;;;;31.80;28.10;;;;;;;;;;5065044;28;20024;-44
2024/03/23 05:12:02;;;;;;;40.95;28.67;;;;;;;;;;5064852;28;20208;-58
2024/03/23 05:14:29;;;;;;;36.10;28.50;;;;;;;;;;5064972;28;20067;-54
2024/03/23 05:16:56;;;;;;;37.83;28.30;;;;;;;;;;5064430;28;20024;-39
2024/03/23 05:19:22;;;;;;;31.77;28.40;;;;;;;;;;5064263;28;20302;-41
2024/03/23 05:21:49;;;;;;;36.90;28.73;;;;;;;;;;5064369;28;20013;-38
2024/03/23 05:24:16;;;;;;;33.33;29.65;;;;;;;;;;5064759;28;20335;-37
2024/03/23 05:26:42;;;;;;;33.10;28.80;;;;;;;;;;5064234;28;20017;-41
2024/03/23 05:29:13;;;;;;;34.22;27.85;;;;;;;;;;5061881;28;20053;-46
2024/03/23 05:31:41;;;;;;;33.88;28.83;;;;;;;;;;5054921;28;20182;-46
2024/03/23 05:34:08;;;;;;;37.75;28.33;;;;;;;;;;5064627;28;20032;-45
2024/03/23 05:36:36;;;;;;;32.30;28.80;;;;;;;;;;5064440;28;20021;-39
2024/03/23 05:39:02;;;;;;;33.60;29.23;;;;;;;;;;5064669;28;20025;-50
2024/03/23 05:41:29;;;;;;;34.80;29.33;;;;;;;;;;5064512;28;20036;-40
2024/03/23 05:43:55;;;;;;;32.75;28.92;;;;;;;;;;5064615;28;20083;-43
2024/03/23 05:46:22;;;;;;;33.80;29.98;;;;;;;;;;5064201;28;20217;-42
2024/03/23 05:48:48;;;;;;;32.70;29.10;;;;;;;;;;5064594;28;20328;-45
2024/03/23 05:51:16;;;;;;;33.40;29.80;;;;;;;;;;5064061;28;20356;-38
2024/03/23 05:53:43;;;;;;;33.10;29.58;;;;;;;;;;5064080;28;20031;-40
2024/03/23 05:56:09;;;;;;;33.40;29.45;;;;;;;;;;5064003;28;20041;-38
2024/03/23 05:58:36;;;;;;;34.65;29.63;;;;;;;;;;5063861;28;20033;-42
2024/03/23 06:01:02;;;;;;;35.17;29.95;;;;;;;;;;5063805;28;20080;-46
2024/03/23 06:03:30;;;;;;;31.88;28.50;;;;;;;;;;5059850;28;20075;-37
2024/03/23 06:05:57;;;;;;;32.92;29.33;;;;;;;;;;5054906;28;20021;-39
2024/03/23 06:08:24;;;;;;;33.25;29.85;;;;;;;;;;5063674;28;20051;-47
2024/03/23 06:10:50;;;;;;;34.00;29.98;;;;;;;;;;5064009;28;20012;-43
2024/03/23 06:13:18;;;;;;;34.05;30.55;;;;;;;;;;5063926;28;20032;-40
2024/03/23 06:15:46;;;;;;;33.25;28.65;;;;;;;;;;5063610;28;20017;-37
2024/03/23 06:18:13;;;;;;;32.33;28.90;;;;;;;;;;5063534;28;20057;-41
2024/03/23 06:20:42;;;;;;;40.58;31.17;;;;;;;;;;5063623;28;20056;-38
2024/03/23 06:23:08;;;;;;;33.30;29.58;;;;;;;;;;5063778;28;20032;-38
2024/03/23 06:25:35;;;;;;;35.42;30.23;;;;;;;;;;5063637;28;20032;-39
2024/03/23 06:28:03;;;;;;;33.22;29.20;;;;;;;;;;5063696;28;20080;-48
2024/03/23 06:30:29;;;;;;;37.15;30.73;;;;;;;;;;5061447;28;20321;-39
2024/03/23 06:32:56;;;;;;;35.00;30.17;;;;;;;;;;5062590;28;20301;-42
2024/03/23 06:35:23;;;;;;;32.90;29.15;;;;;;;;;;5063560;28;20094;-40
2024/03/23 06:37:49;;;;;;;33.88;29.60;;;;;;;;;;5063555;28;20024;-43
2024/03/23 06:40:16;;;;;;;34.05;29.92;;;;;;;;;;5063594;28;20033;-39
2024/03/23 06:42:42;;;;;;;34.28;30.20;;;;;;;;;;5063496;28;20025;-37
2024/03/23 06:45:09;;;;;;;32.03;28.42;;;;;;;;;;5063476;28;20317;-41
2024/03/23 06:47:36;;;;;;;32.55;29.05;;;;;;;;;;5063461;28;20096;-50
2024/03/23 06:50:03;;;;;;;34.83;29.65;;;;;;;;;;5059172;28;20240;-42
2024/03/23 06:52:30;;;;;;;33.75;29.48;;;;;;;;;;5054485;28;20078;-42
2024/03/23 06:54:57;;;;;;;36.28;31.25;;;;;;;;;;5063209;28;20021;-40
2024/03/23 06:57:24;;;;;;;33.72;30.27;;;;;;;;;;5063328;28;20016;-38
2024/03/23 06:59:50;;;;;;;34.47;29.35;;;;;;;;;;5063215;28;20028;-38
2024/03/23 07:02:17;;;;;;;38.30;31.10;;;;;;;;;;5063117;28;20028;-37
2024/03/23 07:04:44;;;;;;;33.80;30.20;;;;;;;;;;5063439;28;20328;-40
2024/03/23 07:07:10;;;;;;;34.00;30.60;;;;;;;;;;5063405;28;20116;-40
2024/03/23 07:09:37;;;;;;;34.60;31.05;;;;;;;;;;5064053;28;20051;-40
2024/03/23 07:12:04;;;;;;;34.50;29.90;;;;;;;;;;5066930;28;20324;-45
2024/03/23 07:14:31;;;;;;;36.88;30.73;;;;;;;;;;5067273;28;20071;-48
2024/03/23 07:16:57;;;;;;;38.40;31.30;;;;;;;;;;5066807;28;20028;-47
2024/03/23 07:19:24;;;;;;;34.75;31.10;;;;;;;;;;5066642;28;20095;-49
2024/03/23 07:21:51;;;;;;;34.60;30.00;;;;;;;;;;5066695;28;20307;-48
2024/03/23 07:24:17;;;;;;;33.65;30.05;;;;;;;;;;5067007;28;20025;-47
2024/03/23 07:26:44;;;;;;;36.38;30.90;;;;;;;;;;5066735;28;20285;-46
2024/03/23 07:29:10;;;;;;;35.03;30.25;;;;;;;;;;5067100;28;20024;-45
2024/03/23 07:31:38;;;;;;;34.03;30.33;;;;;;;;;;5066689;28;20092;-46
2024/03/23 07:34:05;;;;;;;35.13;30.75;;;;;;;;;;5066866;28;20207;-54
2024/03/23 07:36:32;;;;;;;36.67;29.92;;;;;;;;;;5066460;28;20029;-42
2024/03/23 07:38:58;;;;;;;35.72;30.98;;;;;;;;;;5066649;28;20072;-40
2024/03/23 07:41:27;;;;;;;35.10;31.30;;;;;;;;;;5066520;28;20032;-37
2024/03/23 07:43:54;;;;;;;35.22;30.48;;;;;;;;;;5066621;28;20024;-37
2024/03/23 07:46:21;;;;;;;38.28;30.73;;;;;;;;;;5066213;28;20029;-37
2024/03/23 07:48:49;;;;;;;32.40;29.15;;;;;;;;;;5066580;28;20297;-41
2024/03/23 07:51:19;;;;;;;33.85;30.35;;;;;;;;;;5066167;28;20028;-40
2024/03/23 07:53:46;;;;;;;35.08;31.35;;;;;;;;;;5066366;28;20082;-41
2024/03/23 07:56:15;;;;;;;33.35;29.80;;;;;;;;;;5066204;28;20217;-36
2024/03/23 07:58:42;;;;;;;34.72;31.20;;;;;;;;;;5065920;28;20024;-41
2024/03/23 08:01:09;;;;;;;34.75;31.02;;;;;;;;;;5065839;28;20035;-41
2024/03/23 08:03:36;;;;;;;33.30;29.67;;;;;;;;;;5066358;28;20080;-46
2024/03/23 08:06:23;;;;;;;36.00;30.77;;;;;;;;;;5066019;28;20342;-41
2024/03/23 08:08:59;;;;;;;33.35;29.73;;;;;;;;;;5048276;28;20025;-39
2024/03/23 08:11:34;;;;;;;37.72;30.02;;;;;;;;;;5065774;28;20220;-39
2024/03/23 08:14:01;;;;;;;35.58;31.30;;;;;;;;;;5066245;28;20067;-38
2024/03/23 08:16:28;;;;;;;37.05;31.10;;;;;;;;;;5065709;28;20044;-42
2024/03/23 08:18:57;;;;;;;34.22;30.58;;;;;;;;;;5065412;28;20045;-40
2024/03/23 08:21:26;;;;;;;34.72;30.00;;;;;;;;;;5065597;28;20021;-40
2024/03/23 08:23:52;;;;;;;34.92;30.98;;;;;;;;;;5066070;28;20232;-44
2024/03/23 08:26:19;;;;;;;35.95;31.50;;;;;;;;;;5065439;28;20032;-39
2024/03/23 08:28:46;;;;;;;34.92;30.80;;;;;;;;;;5065815;28;20021;-40
2024/03/23 08:31:14;;;;;;;33.17;29.77;;;;;;;;;;5065520;28;20021;-47
2024/03/23 08:33:42;;;;;;;35.38;30.73;;;;;;;;;;5065455;28;20032;-45
2024/03/23 08:36:12;;;;;;;35.60;31.30;;;;;;;;;;5065286;28;20028;-45
2024/03/23 08:38:39;;;;;;;34.72;31.10;;;;;;;;;;5065558;28;20031;-42
2024/03/23 08:41:06;;;;;;;36.35;32.47;;;;;;;;;;5065048;28;20032;-41
2024/03/23 08:43:34;;;;;;;36.53;30.90;;;;;;;;;;5065427;28;20208;-41
2024/03/23 08:46:13;;;;;;;33.40;29.90;;;;;;;;;;5065378;28;20021;-40
2024/03/23 08:48:43;;;;;;;33.60;29.98;;;;;;;;;;5065326;28;20070;-47
2024/03/23 08:51:10;;;;;;;33.90;30.30;;;;;;;;;;5064951;28;20092;-46
2024/03/23 08:53:37;;;;;;;33.78;30.15;;;;;;;;;;5065164;28;20055;-48
2024/03/23 08:56:05;;;;;;;32.63;29.25;;;;;;;;;;5065015;28;20329;-47
2024/03/23 08:58:32;;;;;;;35.33;30.83;;;;;;;;;;5065079;28;20272;-48
2024/03/23 09:01:07;;;;;;;35.33;30.65;;;;;;;;;;5064769;28;20259;-44
2024/03/23 09:03:34;;;;;;;36.13;32.03;;;;;;;;;;5065074;28;20032;-44
2024/03/23 09:06:01;;;;;;;35.00;31.02;;;;;;;;;;5064686;28;20036;-44
2024/03/23 09:08:28;;;;;;;34.42;30.17;;;;;;;;;;5064652;28;20089;-39
2024/03/23 09:10:55;;;;;;;34.30;30.83;;;;;;;;;;5064632;28;20021;-48
2024/03/23 09:13:21;;;;;;;33.42;29.88;;;;;;;;;;5064825;28;20354;-41
2024/03/23 09:15:49;;;;;;;34.95;30.95;;;;;;;;;;5064674;28;20201;-42
2024/03/23 09:18:16;;;;;;;34.65;30.65;;;;;;;;;;5064445;28;20068;-38
2024/03/23 09:20:42;;;;;;;32.28;28.88;;;;;;;;;;5064602;28;20025;-41
2024/03/23 09:23:09;;;;;;;33.47;30.10;;;;;;;;;;5064435;28;20020;-43
2024/03/23 09:25:39;;;;;;;42.38;31.67;;;;;;;;;;5064699;28;20062;-46
2024/03/23 09:28:09;;;;;;;33.85;30.15;;;;;;;;;;5064552;28;20071;-48
2024/03/23 09:30:42;;;;;;;36.63;31.80;;;;;;;;;;5064212;28;20024;-49
2024/03/23 09:33:09;;;;;;;34.78;31.08;;;;;;;;;;5063840;28;20035;-38
2024/03/23 09:35:42;;;;;;;33.97;30.38;;;;;;;;;;5064176;28;20021;-43
2024/03/23 09:38:09;;;;;;;34.25;30.63;;;;;;;;;;5064318;28;20033;-41
2024/03/23 09:40:36;;;;;;;38.33;31.20;;;;;;;;;;5063923;28;20025;-39
2024/03/23 09:43:03;;;;;;;33.60;30.15;;;;;;;;;;5058164;28;20025;-41
2024/03/23 09:45:30;;;;;;;35.72;30.30;;;;;;;;;;5064122;28;20037;-43
2024/03/23 09:47:57;;;;;;;36.20;32.10;;;;;;;;;;5063330;28;20024;-40
2024/03/23 09:50:24;;;;;;;35.08;30.80;;;;;;;;;;5062312;28;20032;-46
2024/03/23 09:52:50;;;;;;;34.83;30.67;;;;;;;;;;5062421;28;20207;-45
2024/03/23 09:55:17;;;;;;;41.83;30.85;;;;;;;;;;5062190;28;20048;-40
2024/03/23 09:57:44;;;;;;;41.33;31.05;;;;;;;;;;5062206;28;20029;-40
2024/03/23 10:00:12;;;;;;;40.88;30.95;;;;;;;;;;5062040;28;20075;-42
2024/03/23 10:02:39;;;;;;;35.42;30.90;;;;;;;;;;5062295;28;20067;-41
2024/03/23 10:05:05;;;;;;;36.28;31.05;;;;;;;;;;5062096;28;20032;-51
2024/03/23 10:07:32;;;;;;;33.65;30.08;;;;;;;;;;5061791;28;20029;-45
2024/03/23 10:09:59;;;;;;;34.70;30.58;;;;;;;;;;5062014;28;20029;-42
2024/03/23 10:12:25;;;;;;;35.72;30.33;;;;;;;;;;5062327;28;20017;-46
2024/03/23 10:14:52;;;;;;;33.15;29.38;;;;;;;;;;5063524;28;20029;-40
2024/03/23 10:17:19;;;;;;;34.30;30.70;;;;;;;;;;5063673;28;20119;-50
2024/03/23 10:19:47;;;;;;;33.97;30.30;;;;;;;;;;5063595;28;20052;-48
2024/03/23 10:22:26;;;;;;;34.08;30.35;;;;;;;;;;5063299;28;20027;-43
2024/03/23 10:24:53;;;;;;;36.97;31.10;;;;;;;;;;5063719;28;20047;-40
2024/03/23 10:27:21;;;;;;;34.03;30.42;;;;;;;;;;5063310;28;20029;-47
2024/03/23 10:29:50;;;;;;;37.03;30.70;;;;;;;;;;5063744;28;20338;-45
2024/03/23 10:32:18;;;;;;;36.80;31.20;;;;;;;;;;5063450;28;20027;-40
2024/03/23 10:34:45;;;;;;;39.05;31.52;;;;;;;;;;5063438;28;20025;-44
2024/03/23 10:37:13;;;;;;;38.85;31.80;;;;;;;;;;5063550;28;20017;-39
2024/03/23 10:39:40;;;;;;;36.33;30.67;;;;;;;;;;5064091;28;20029;-46
2024/03/23 10:42:08;;;;;;;40.58;32.03;;;;;;;;;;5063622;28;20102;-47
2024/03/23 10:44:35;;;;;;;37.53;31.63;;;;;;;;;;5065807;28;20021;-48
2024/03/23 10:47:02;;;;;;;47.35;32.28;;;;;;;;;;5067505;28;20337;-43
2024/03/23 10:49:35;;;;;;;44.80;32.22;;;;;;;;;;5067793;28;20058;-42
2024/03/23 10:52:06;;;;;;;40.83;30.77;;;;;;;;;;5067497;28;20378;-39
2024/03/23 10:54:33;;;;;;;40.13;31.30;;;;;;;;;;5068024;28;20035;-45
2024/03/23 10:57:17;;;;;;;37.92;31.30;;;;;;;;;;5067374;28;20186;-43
2024/03/23 10:59:45;;;;;;;36.92;30.75;;;;;;;;;;5067280;28;20325;-44
2024/03/23 11:02:19;;;;;;;36.50;31.00;;;;;;;;;;5067080;28;20021;-49
2024/03/23 11:04:49;;;;;;;36.83;31.85;;;;;;;;;;5067368;28;20200;-45
2024/03/23 11:07:25;;;;;;;68.55;33.22;;;;;;;;;;5066706;28;20017;-49
2024/03/23 11:09:52;;;;;;;94.15;32.55;;;;;;;;;;5067107;28;20017;-48
2024/03/23 11:12:24;;;;;;;51.42;31.48;;;;;;;;;;5066984;28;20021;-48
2024/03/23 11:14:52;;;;;;;49.67;30.98;;;;;;;;;;5066702;28;20027;-45
2024/03/23 11:17:25;;;;;;;47.45;32.10;;;;;;;;;;5066762;28;20080;-45
2024/03/23 11:19:57;;;;;;;36.88;31.23;;;;;;;;;;5066706;28;20056;-43
2024/03/23 11:22:39;;;;;;;45.90;31.50;;;;;;;;;;5066713;28;20032;-39
2024/03/23 11:25:22;;;;;;;43.00;31.75;;;;;;;;;;5066925;28;20070;-44
2024/03/23 11:27:49;;;;;;;41.25;31.45;;;;;;;;;;5066904;28;20052;-42
2024/03/23 11:30:23;;;;;;;45.17;31.08;;;;;;;;;;5066552;28;20187;-44
2024/03/23 11:32:54;;;;;;;38.17;31.67;;;;;;;;;;5052897;28;20024;-42
2024/03/23 11:35:33;;;;;;;43.30;30.40;;;;;;;;;;5064350;28;20194;-43
2024/03/23 11:38:06;;;;;;;40.28;31.65;;;;;;;;;;5064972;28;20021;-40
2024/03/23 11:40:33;;;;;;;43.90;32.53;;;;;;;;;;5064699;28;20025;-42
2024/03/23 11:43:01;;;;;;;41.78;31.15;;;;;;;;;;5064750;28;20028;-49
2024/03/23 11:45:28;;;;;;;43.38;31.17;;;;;;;;;;5064761;28;20070;-46
2024/03/23 11:48:05;;;;;;;47.60;31.73;;;;;;;;;;5056461;28;20335;-40
2024/03/23 11:50:32;;;;;;;40.40;30.75;;;;;;;;;;5044889;28;20028;-44
2024/03/23 11:53:08;;;;;;;34.88;30.90;;;;;;;;;;5046015;28;20017;-45
2024/03/23 11:55:44;;;;;;;47.58;30.63;;;;;;;;;;5044456;28;20021;-40
2024/03/23 11:58:11;;;;;;;45.83;31.17;;;;;;;;;;5044656;28;20029;-46
2024/03/23 12:00:38;;;;;;;40.38;30.83;;;;;;;;;;5044730;28;20029;-48
2024/03/23 12:03:05;;;;;;;41.72;30.88;;;;;;;;;;5044663;28;20293;-51
2024/03/23 12:05:35;;;;;;;43.35;32.00;;;;;;;;;;5045608;28;20029;-43
2024/03/23 12:08:21;;;;;;;44.97;30.85;;;;;;;;;;5045976;28;20040;-44
2024/03/23 12:10:53;;;;;;;38.00;31.00;;;;;;;;;;5045913;28;20021;-53
2024/03/23 12:13:22;;;;;;;44.83;31.00;;;;;;;;;;5046063;28;20024;-41
2024/03/23 12:15:51;;;;;;;37.72;30.63;;;;;;;;;;5045664;28;20329;-41
2024/03/23 12:18:18;;;;;;;39.30;31.10;;;;;;;;;;5044957;28;20046;-44
2024/03/23 12:20:44;;;;;;;40.15;30.60;;;;;;;;;;5045597;28;20049;-43
2024/03/23 12:23:12;;;;;;;38.38;31.08;;;;;;;;;;5045809;28;20354;-49
2024/03/23 12:25:40;;;;;;;36.35;31.33;;;;;;;;;;5045607;28;20317;-49
2024/03/23 12:28:07;;;;;;;35.92;31.23;;;;;;;;;;5045638;28;20040;-51
2024/03/23 12:30:39;;;;;;;40.50;31.00;;;;;;;;;;5045415;28;20021;-50
2024/03/23 12:33:06;;;;;;;37.85;32.28;;;;;;;;;;5045673;28;20040;-49
2024/03/23 12:35:33;;;;;;;39.95;31.55;;;;;;;;;;5045500;28;20052;-48
2024/03/23 12:37:59;;;;;;;36.25;30.80;;;;;;;;;;5045554;28;20025;-48
2024/03/23 12:40:29;;;;;;;40.08;31.73;;;;;;;;;;5045464;28;20025;-52
2024/03/23 12:42:59;;;;;;;36.17;31.88;;;;;;;;;;5045377;28;20177;-49
2024/03/23 12:45:25;;;;;;;41.75;31.15;;;;;;;;;;5045172;28;20026;-49
2024/03/23 12:47:54;;;;;;;43.67;32.20;;;;;;;;;;5049596;28;20056;-38
2024/03/23 12:50:21;;;;;;;45.85;32.33;;;;;;;;;;5069426;28;20087;-43
2024/03/23 12:52:48;;;;;;;38.60;31.42;;;;;;;;;;5062282;28;20174;-47
2024/03/23 12:55:14;;;;;;;43.17;31.30;;;;;;;;;;5061955;28;20266;-40
2024/03/23 12:57:41;;;;;;;37.30;31.25;;;;;;;;;;5064686;28;20021;-41
2024/03/23 13:00:11;;;;;;;39.13;31.55;;;;;;;;;;5063085;28;20080;-40
2024/03/23 13:02:38;;;;;;;48.42;32.50;;;;;;;;;;5064804;28;20029;-43
2024/03/23 13:05:05;;;;;;;46.05;33.40;;;;;;;;;;5064825;28;20025;-45
2024/03/23 13:07:32;;;;;;;71.88;39.40;;;;;;;;;;5063671;28;20045;-39
2024/03/23 13:09:58;;;;;;;58.92;35.75;;;;;;;;;;5065033;28;20017;-40
2024/03/23 13:12:25;;;;;;;54.47;33.60;;;;;;;;;;5063890;28;20024;-43
2024/03/23 13:14:51;;;;;;;52.28;34.80;;;;;;;;;;5062897;28;20025;-50
2024/03/23 13:17:18;;;;;;;43.25;34.50;;;;;;;;;;5063659;28;20021;-44
2024/03/23 13:19:45;;;;;;;46.83;32.72;;;;;;;;;;5064512;28;20052;-42
2024/03/23 13:22:11;;;;;;;40.72;33.35;;;;;;;;;;5064419;28;20024;-42
2024/03/23 13:24:38;;;;;;;41.55;33.13;;;;;;;;;;5064598;28;20029;-42
2024/03/23 13:27:08;;;;;;;41.85;32.72;;;;;;;;;;5064462;28;20024;-49
2024/03/23 13:29:35;;;;;;;37.70;33.50;;;;;;;;;;5064806;28;20029;-44
2024/03/23 13:32:05;;;;;;;40.92;33.00;;;;;;;;;;5064350;28;20025;-40
2024/03/23 13:34:31;;;;;;;38.13;31.92;;;;;;;;;;5064907;28;20246;-47
2024/03/23 13:36:58;;;;;;;37.58;32.65;;;;;;;;;;5064261;28;20029;-38
2024/03/23 13:39:25;;;;;;;40.63;33.30;;;;;;;;;;5063917;28;20202;-43
2024/03/23 13:41:51;;;;;;;38.38;32.13;;;;;;;;;;5064496;28;20025;-41
2024/03/23 13:44:18;;;;;;;38.72;32.38;;;;;;;;;;5064740;28;20028;-41
2024/03/23 13:46:46;;;;;;;41.47;32.63;;;;;;;;;;5064228;28;20041;-46
2024/03/23 13:49:33;;;;;;;40.50;33.08;;;;;;;;;;5064633;28;20067;-45
2024/03/23 13:52:00;;;;;;;43.95;32.63;;;;;;;;;;5064283;28;20080;-44
2024/03/23 13:54:27;;;;;;;41.92;33.30;;;;;;;;;;5064751;28;20250;-39
2024/03/23 13:56:55;;;;;;;44.63;33.08;;;;;;;;;;5064419;28;20021;-40
2024/03/23 13:59:25;;;;;;;44.28;33.55;;;;;;;;;;5065016;28;20032;-43
2024/03/23 14:01:52;;;;;;;41.22;33.25;;;;;;;;;;5064465;28;20209;-44
2024/03/23 14:04:22;;;;;;;43.10;32.88;;;;;;;;;;5064644;28;20088;-39
2024/03/23 14:06:49;;;;;;;41.03;32.00;;;;;;;;;;5064034;28;20025;-44
2024/03/23 14:09:21;;;;;;;37.88;31.83;;;;;;;;;;5064859;28;20024;-42
2024/03/23 14:11:47;;;;;;;39.35;33.35;;;;;;;;;;5064323;28;20106;-40
2024/03/23 14:14:17;;;;;;;41.53;33.90;;;;;;;;;;5064588;28;20093;-39
2024/03/23 14:16:44;;;;;;;44.25;32.10;;;;;;;;;;5063684;28;20025;-39
2024/03/23 14:19:11;;;;;;;41.03;33.38;;;;;;;;;;5063351;28;20287;-39